Time;durP1;ratioP1;P1;durP2;ratioP2;P2;SDS_P1;SDS_P2;PMS_P1;PMS_P2;Temp;Humidity;BMP_temperature;BMP_pressure;BME280_temperature;BME280_humidity;BME280_pressure;Samples;Min_cycle;Max_cycle;Signal;HPM_P1;HPM_P2
2024/01/18 00:03:42;;;;;;;3.60;3.30;;;;;;;12.41;50.76;97199.41;10400480;28;20236;-37
2024/01/18 00:08:44;;;;;;;3.40;3.10;;;;;;;12.49;51.50;97097.03;10394599;28;20317;-36
2024/01/18 00:13:47;;;;;;;3.53;3.23;;;;;;;12.75;50.65;97150.75;10403716;28;20229;-36
2024/01/18 00:18:49;;;;;;;3.60;3.07;;;;;;;12.32;51.41;97147.34;10398587;28;20263;-36
2024/01/18 00:23:50;;;;;;;4.47;3.43;;;;;;;14.18;47.65;97100.94;10401836;28;20331;-37
2024/01/18 00:28:52;;;;;;;3.63;3.33;;;;;;;12.97;49.06;97230.28;10400402;28;20750;-36
2024/01/18 00:33:57;;;;;;;3.70;3.30;;;;;;;11.58;51.44;97250.72;10385226;28;20653;-36
2024/01/18 00:39:03;;;;;;;5.37;3.30;;;;;;;12.50;50.25;97189.84;10403243;28;20241;-36
2024/01/18 00:44:05;;;;;;;3.37;3.17;;;;;;;12.35;50.38;97240.66;10403104;28;20322;-37
2024/01/18 00:49:07;;;;;;;3.47;3.10;;;;;;;14.92;46.42;97112.75;10399163;28;20249;-36
2024/01/18 00:54:09;;;;;;;3.90;3.50;;;;;;;14.23;46.43;97291.88;10401548;28;20323;-38
2024/01/18 00:59:11;;;;;;;3.50;3.20;;;;;;;12.77;48.69;97331.09;10409074;28;20229;-37
2024/01/18 01:04:12;;;;;;;8.13;6.53;;;;;;;10.76;49.51;97300.59;10403172;28;20225;-35
2024/01/18 01:09:14;;;;;;;8.40;7.00;;;;;;;8.66;52.19;97203.13;10401344;28;20604;-36
2024/01/18 01:14:16;;;;;;;8.47;7.47;;;;;;;8.90;50.82;97162.31;10403737;28;20366;-36
2024/01/18 01:19:18;;;;;;;7.43;6.57;;;;;;;7.70;51.92;97186.56;10400549;28;20814;-36
2024/01/18 01:24:20;;;;;;;6.50;5.90;;;;;;;5.60;53.95;97245.84;10395423;28;20581;-35
2024/01/18 01:29:21;;;;;;;6.53;5.93;;;;;;;7.87;50.24;97182.22;10399842;28;20237;-36
2024/01/18 01:34:23;;;;;;;7.20;6.50;;;;;;;6.05;52.21;97208.56;10405452;28;20242;-37
2024/01/18 01:39:25;;;;;;;8.20;7.10;;;;;;;7.73;48.78;97250.81;10379211;28;20228;-37
2024/01/18 01:44:27;;;;;;;6.90;6.20;;;;;;;8.40;48.50;97108.50;10397202;28;20257;-37
2024/01/18 01:49:28;;;;;;;6.47;5.80;;;;;;;7.69;48.07;97318.81;10395984;28;20431;-37
2024/01/18 01:54:32;;;;;;;5.93;5.43;;;;;;;8.03;47.89;97163.91;10400724;28;20311;-37
2024/01/18 01:59:34;;;;;;;5.13;4.83;;;;;;;6.57;50.00;97226.06;10377189;28;20287;-38
2024/01/18 02:04:36;;;;;;;5.30;4.80;;;;;;;7.75;48.33;97104.16;10399533;28;20256;-36
2024/01/18 02:09:39;;;;;;;4.93;4.53;;;;;;;7.36;47.85;97252.75;10395966;28;20670;-36
2024/01/18 02:14:41;;;;;;;7.40;6.00;;;;;;;7.26;48.62;97162.84;10398427;28;20233;-36
2024/01/18 02:19:43;;;;;;;4.97;4.57;;;;;;;6.66;50.90;97105.13;10399174;28;20264;-36
2024/01/18 02:25:12;;;;;;;4.33;3.93;;;;;;;7.07;48.75;97129.38;10390985;28;20240;-38
2024/01/18 02:30:14;;;;;;;4.80;4.40;;;;;;;5.95;50.31;97277.25;10392086;28;20322;-35
2024/01/18 02:35:16;;;;;;;5.60;5.10;;;;;;;7.32;47.20;97260.34;10402028;28;20237;-37
2024/01/18 02:40:18;;;;;;;3.90;3.70;;;;;;;5.44;50.27;97281.63;10400525;28;20250;-37
2024/01/18 02:45:21;;;;;;;4.20;3.90;;;;;;;6.27;50.48;97083.34;10394531;28;20355;-35
2024/01/18 02:50:23;;;;;;;4.00;3.80;;;;;;;7.04;48.74;97104.06;10381518;28;20232;-36
2024/01/18 02:55:24;;;;;;;5.30;4.80;;;;;;;5.92;48.78;97268.91;10400223;28;20395;-36
2024/01/18 03:00:26;;;;;;;4.10;3.80;;;;;;;5.74;49.64;97246.59;10394529;28;20225;-35
2024/01/18 03:05:28;;;;;;;5.20;4.70;;;;;;;5.00;49.80;97325.66;10397139;28;20243;-35
2024/01/18 03:10:30;;;;;;;4.53;4.23;;;;;;;5.88;49.07;97249.97;10395036;28;20235;-35
2024/01/18 03:15:31;;;;;;;4.20;3.90;;;;;;;5.64;49.45;97204.63;10394047;28;20224;-36
2024/01/18 03:20:33;;;;;;;4.13;3.83;;;;;;;6.05;48.92;97195.28;10393157;28;20235;-37
2024/01/18 03:25:35;;;;;;;4.20;3.90;;;;;;;6.70;48.26;97156.00;10379219;28;20243;-35
2024/01/18 03:30:37;;;;;;;4.33;4.03;;;;;;;6.85;47.85;97129.06;10390163;28;20258;-35
2024/01/18 03:35:39;;;;;;;5.23;4.53;;;;;;;6.75;47.17;97156.13;10390385;28;20244;-36
2024/01/18 03:40:40;;;;;;;4.63;4.23;;;;;;;5.73;48.91;97152.09;10397601;28;20705;-35
2024/01/18 03:45:42;;;;;;;4.60;4.30;;;;;;;5.06;49.74;97253.25;10399033;28;20236;-35
2024/01/18 03:50:44;;;;;;;5.80;5.30;;;;;;;4.76;48.51;97402.16;10399499;28;20237;-36
2024/01/18 03:55:45;;;;;;;5.07;4.57;;;;;;;3.95;50.98;97360.72;10402447;28;20234;-37
2024/01/18 04:00:47;;;;;;;5.00;4.70;;;;;;;4.82;49.95;97233.56;10378989;28;20293;-35
2024/01/18 04:05:49;;;;;;;5.63;5.13;;;;;;;6.65;47.64;97110.66;10395330;28;20501;-35
2024/01/18 04:10:51;;;;;;;5.30;4.80;;;;;;;5.79;48.17;97238.81;10391524;28;20235;-35
2024/01/18 04:15:53;;;;;;;5.07;4.67;;;;;;;6.52;47.02;97173.56;10396385;28;20243;-34
2024/01/18 04:20:54;;;;;;;5.37;4.87;;;;;;;4.66;49.41;97348.75;10393532;28;20881;-36
2024/01/18 04:25:57;;;;;;;5.53;5.03;;;;;;;4.19;50.73;97303.72;10393208;28;20756;-35
2024/01/18 04:30:58;;;;;;;5.53;5.03;;;;;;;3.72;51.09;97403.38;10380552;28;20301;-35
2024/01/18 04:36:00;;;;;;;5.63;5.13;;;;;;;3.89;49.87;97456.75;10407698;23;20518;-77
2024/01/18 04:41:02;;;;;;;6.03;5.43;;;;;;;3.30;51.48;97410.53;10409559;28;20239;-71
2024/01/18 04:46:04;;;;;;;6.77;6.07;;;;;;;5.83;48.96;97103.81;10390136;28;20321;-71
2024/01/18 04:51:06;;;;;;;6.20;5.60;;;;;;;4.62;51.04;97134.81;10389209;28;20245;-71
2024/01/18 04:56:07;;;;;;;6.50;5.83;;;;;;;4.35;50.05;97277.88;10394947;28;20325;-71
2024/01/18 05:05:19;;;;;;;6.63;5.93;;;;;;;1.51;56.85;97160.94;10385857;27;21449;-71
2024/01/18 05:10:21;;;;;;;6.77;6.00;;;;;;;2.12;55.18;97112.88;10329510;28;20231;-70
2024/01/18 05:15:25;;;;;;;6.73;6.13;;;;;;;2.17;55.03;97105.19;10338063;28;20286;-69
2024/01/18 05:20:26;;;;;;;7.13;6.43;;;;;;;3.17;52.84;97117.91;10362837;28;20245;-71
2024/01/18 05:25:28;;;;;;;5.90;5.40;;;;;;;2.17;55.03;97123.66;10350619;28;20624;-71
2024/01/18 05:30:30;;;;;;;6.47;5.73;;;;;;;2.73;53.81;97109.44;10365315;28;20783;-70
2024/01/18 05:35:31;;;;;;;6.67;6.00;;;;;;;1.91;54.97;97129.59;10352400;28;20238;-71
2024/01/18 05:40:33;;;;;;;6.67;6.07;;;;;;;1.56;54.22;97321.16;10336570;28;20249;-70
2024/01/18 05:45:34;;;;;;;6.10;5.50;;;;;;;3.52;52.07;97101.84;10370303;28;20307;-72
2024/01/18 05:50:36;;;;;;;6.13;5.63;;;;;;;3.07;53.07;97122.75;10348421;28;20248;-73
2024/01/18 05:55:38;;;;;;;5.47;4.97;;;;;;;3.12;53.20;97074.59;10339218;28;20721;-73
2024/01/18 06:00:39;;;;;;;7.10;6.50;;;;;;;2.78;52.66;97243.56;10339764;28;20252;-73
2024/01/18 06:05:41;;;;;;;6.70;6.10;;;;;;;2.36;52.49;97361.47;10342517;28;20584;-74
2024/01/18 06:10:43;;;;;;;7.80;6.97;;;;;;;3.72;50.49;97199.72;10329260;28;20852;-73
2024/01/18 06:15:45;;;;;;;6.67;6.00;;;;;;;1.87;53.26;97362.25;10309514;28;20324;-73
2024/01/18 06:20:47;;;;;;;6.83;6.13;;;;;;;3.37;51.89;97125.03;10339716;28;20366;-73
2024/01/18 06:25:49;;;;;;;6.73;6.13;;;;;;;1.76;52.72;97398.66;10352215;28;20718;-74
2024/01/18 06:30:51;;;;;;;10.07;6.53;;;;;;;4.28;50.05;97139.38;10353952;28;20231;-73
2024/01/18 06:35:52;;;;;;;7.17;6.37;;;;;;;3.68;51.52;97070.72;10347261;28;20281;-73
2024/01/18 06:40:58;;;;;;;7.70;6.90;;;;;;;2.22;52.37;97373.75;10347045;28;20729;-74
2024/01/18 06:45:59;;;;;;;7.27;6.57;;;;;;;3.62;50.39;97253.00;10353478;28;20262;-73
2024/01/18 06:51:01;;;;;;;9.20;8.30;;;;;;;2.64;51.54;97339.56;10350225;28;20228;-73
2024/01/18 06:56:10;;;;;;;8.40;7.60;;;;;;;2.76;52.08;97229.72;10352330;28;20473;-73
2024/01/18 07:01:14;;;;;;;8.33;7.40;;;;;;;1.53;53.92;97350.53;10343413;28;20495;-73
2024/01/18 07:06:17;;;;;;;9.83;8.10;;;;;;;2.70;51.77;97280.69;10349354;28;20330;-74
2024/01/18 07:11:19;;;;;;;8.63;7.73;;;;;;;2.29;52.70;97241.84;10352015;28;20234;-73
2024/01/18 07:16:21;;;;;;;9.00;7.63;;;;;;;2.42;52.62;97207.63;10349688;28;20268;-73
2024/01/18 07:21:23;;;;;;;8.27;7.43;;;;;;;2.56;52.29;97173.38;10351254;28;20346;-73
2024/01/18 07:26:24;;;;;;;9.17;7.90;;;;;;;1.89;53.69;97220.47;10352837;28;20251;-74
2024/01/18 07:31:26;;;;;;;11.03;9.83;;;;;;;1.79;53.64;97261.16;10350673;28;20266;-73
2024/01/18 07:36:28;;;;;;;9.97;8.97;;;;;;;2.20;51.86;97327.44;10349329;28;21036;-73
2024/01/18 07:41:30;;;;;;;7.73;6.93;;;;;;;2.31;52.83;97216.09;10349994;28;20330;-74
2024/01/18 07:46:32;;;;;;;9.17;7.30;;;;;;;2.93;52.53;97129.84;10351941;28;20651;-73
2024/01/18 07:51:33;;;;;;;8.40;7.53;;;;;;;2.77;50.95;97352.03;10345251;28;20235;-73
2024/01/18 07:56:35;;;;;;;8.13;7.20;;;;;;;2.23;51.77;97372.75;10352446;28;20726;-73
2024/01/18 08:01:37;;;;;;;7.43;6.47;;;;;;;2.34;51.91;97352.94;10348029;28;20341;-73
2024/01/18 08:06:42;;;;;;;6.10;5.40;;;;;;;2.69;51.77;97240.25;10352159;28;20722;-73
2024/01/18 08:11:44;;;;;;;5.73;5.23;;;;;;;1.80;52.48;97450.00;10340793;28;20478;-73
2024/01/18 08:16:46;;;;;;;5.57;5.07;;;;;;;2.67;51.72;97236.19;10351051;28;20277;-73
2024/01/18 08:21:47;;;;;;;5.53;5.03;;;;;;;2.68;52.15;97243.09;10347156;28;20929;-73
2024/01/18 08:26:49;;;;;;;5.33;4.83;;;;;;;2.35;51.45;97410.81;10346540;28;20717;-73
2024/01/18 08:31:51;;;;;;;4.80;4.40;;;;;;;0.68;53.21;97652.75;10348317;28;20234;-73
2024/01/18 08:36:53;;;;;;;4.40;4.10;;;;;;;1.68;52.93;97406.69;10349013;28;20240;-73
2024/01/18 08:41:59;;;;;;;4.87;4.47;;;;;;;1.56;53.24;97401.06;10344815;28;20323;-73
2024/01/18 08:47:04;;;;;;;4.60;4.30;;;;;;;1.40;53.23;97403.91;10349134;28;20293;-73
2024/01/18 08:52:06;;;;;;;4.73;4.37;;;;;;;1.45;52.94;97424.44;10346913;28;20299;-73
2024/01/18 08:57:07;;;;;;;5.90;5.40;;;;;;;1.88;52.45;97351.53;10308234;28;20341;-73
2024/01/18 09:02:10;;;;;;;5.33;4.83;;;;;;;2.59;51.62;97323.50;10303834;28;20647;-75
2024/01/18 09:07:26;;;;;;;5.20;4.60;;;;;;;1.80;51.73;97502.75;10306196;28;20219;-75
2024/01/18 09:12:28;;;;;;;4.77;4.37;;;;;;;1.95;52.45;97330.50;10306902;28;20685;-74
2024/01/18 09:17:30;;;;;;;4.67;4.27;;;;;;;2.11;51.62;97440.22;10347368;28;20235;-74
2024/01/18 09:22:31;;;;;;;5.30;4.80;;;;;;;1.63;52.80;97439.88;10346649;28;20295;-74
2024/01/18 09:27:33;;;;;;;4.10;3.80;;;;;;;1.59;51.63;97577.34;10348722;28;20247;-75
2024/01/18 09:32:35;;;;;;;4.60;4.20;;;;;;;1.63;52.20;97525.06;10342679;28;20251;-74
2024/01/18 09:37:37;;;;;;;4.37;4.00;;;;;;;1.47;52.15;97549.75;10348596;28;20797;-74
2024/01/18 09:42:45;;;;;;;3.97;3.67;;;;;;;1.16;51.38;97744.81;10346447;28;20248;-75
2024/01/18 09:47:47;;;;;;;4.00;3.70;;;;;;;1.31;51.79;97627.13;10347974;28;20244;-75
2024/01/18 09:52:49;;;;;;;4.33;4.03;;;;;;;0.34;53.66;97650.41;10350618;28;20575;-74
2024/01/18 09:57:55;;;;;;;4.50;4.17;;;;;;;1.49;51.20;97645.31;10358457;28;20257;-74
2024/01/18 10:02:57;;;;;;;3.90;3.50;;;;;;;2.78;50.04;97472.53;10351338;28;20293;-74
2024/01/18 10:07:59;;;;;;;4.27;3.97;;;;;;;3.40;48.80;97439.25;10351275;28;20241;-73
2024/01/18 10:13:05;;;;;;;4.17;3.73;;;;;;;1.30;51.20;97738.00;10353485;28;20269;-73
2024/01/18 10:18:07;;;;;;;3.80;3.57;;;;;;;2.17;50.93;97527.34;10356204;28;20233;-74
2024/01/18 10:23:10;;;;;;;4.37;4.07;;;;;;;1.10;51.92;97743.72;10352448;28;20293;-74
2024/01/18 10:28:11;;;;;;;3.93;3.63;;;;;;;1.91;50.58;97680.00;10356676;28;20229;-74
2024/01/18 10:33:13;;;;;;;4.33;4.03;;;;;;;2.91;50.08;97483.25;10354002;28;20612;-74
2024/01/18 10:38:15;;;;;;;4.70;4.27;;;;;;;1.71;49.99;97837.91;10353284;28;20225;-74
2024/01/18 10:43:17;;;;;;;4.37;4.07;;;;;;;2.60;49.99;97647.25;10348538;28;20243;-74
2024/01/18 10:48:19;;;;;;;4.27;3.93;;;;;;;2.43;50.36;97639.53;10355465;28;20664;-74
2024/01/18 10:53:25;;;;;;;5.17;4.77;;;;;;;2.38;50.65;97678.06;10350720;28;20740;-74
2024/01/18 10:58:27;;;;;;;4.33;3.93;;;;;;;1.68;49.57;97976.22;10351907;28;20680;-74
2024/01/18 11:06:20;;;;;;;4.37;4.07;;;;;;;-0.75;56.41;97860.88;10492611;27;20309;-73
2024/01/18 11:11:22;;;;;;;4.17;3.83;;;;;;;-0.17;55.07;97850.53;10425079;28;20613;-73
2024/01/18 11:16:24;;;;;;;4.83;4.43;;;;;;;0.17;55.11;97781.19;10429452;28;20235;-72
2024/01/18 11:21:45;;;;;;;4.30;4.00;;;;;;;0.80;54.35;97688.22;10429279;28;20479;-73
2024/01/18 11:26:47;;;;;;;4.73;4.30;;;;;;;0.79;54.22;97784.00;10432111;28;20243;-73
2024/01/18 11:31:49;;;;;;;4.67;4.27;;;;;;;0.43;53.93;97891.53;10419057;28;20325;-73
2024/01/18 11:37:07;;;;;;;5.57;4.93;;;;;;;0.41;53.95;97910.09;10476307;28;20327;-72
2024/01/18 11:42:14;;;;;;;5.97;4.80;;;;;;;1.64;52.83;97728.88;10469740;28;20281;-73
2024/01/18 11:47:18;;;;;;;5.83;5.33;;;;;;;1.21;52.73;97853.16;10463678;28;20688;-74
2024/01/18 11:52:24;;;;;;;5.20;4.70;;;;;;;0.80;53.57;97903.34;10423446;28;20205;-73
2024/01/18 11:57:26;;;;;;;6.37;4.80;;;;;;;0.65;53.69;97932.13;10430735;28;20217;-73
2024/01/18 12:02:28;;;;;;;4.87;4.47;;;;;;;1.31;52.92;97876.69;10470048;28;20244;-73
2024/01/18 12:07:32;;;;;;;5.67;5.13;;;;;;;2.64;50.82;97817.56;10467526;28;20237;-70
2024/01/18 12:12:34;;;;;;;5.60;5.10;;;;;;;1.80;51.75;97932.66;10460663;28;20681;-73
2024/01/18 12:17:36;;;;;;;6.13;4.93;;;;;;;1.67;52.82;97921.03;10401662;28;20247;-73
2024/01/18 12:22:38;;;;;;;5.20;4.70;;;;;;;1.31;52.93;98025.06;10410756;28;20244;-74
2024/01/18 12:27:40;;;;;;;5.30;4.80;;;;;;;0.75;53.75;98079.41;10399770;28;20251;-73
2024/01/18 12:32:42;;;;;;;7.50;5.57;;;;;;;0.93;54.42;97993.16;10397827;28;20604;-74
2024/01/18 12:37:44;;;;;;;5.30;4.83;;;;;;;1.58;53.58;97892.06;10441916;28;20229;-73
2024/01/18 12:42:49;;;;;;;5.00;4.60;;;;;;;2.05;53.05;97863.91;10427430;28;20238;-73
2024/01/18 12:47:50;;;;;;;5.60;5.03;;;;;;;2.24;52.88;97851.25;10395513;28;20488;-73
2024/01/18 12:52:52;;;;;;;6.10;5.60;;;;;;;1.46;53.87;98021.78;10397487;28;20618;-73
2024/01/18 12:57:58;;;;;;;5.47;4.83;;;;;;;1.13;53.74;98149.09;10438613;28;20233;-74
2024/01/18 13:03:18;;;;;;;5.37;4.50;;;;;;;2.65;51.74;98019.88;10441661;28;20232;-73
2024/01/18 13:08:20;;;;;;;7.17;4.80;;;;;;;2.91;51.77;97925.25;10464223;28;20326;-74
2024/01/18 13:13:22;;;;;;;4.80;4.40;;;;;;;2.99;51.87;97907.69;10440545;28;20244;-73
2024/01/18 13:18:26;;;;;;;5.30;4.83;;;;;;;1.31;53.79;98164.75;10417138;28;20289;-73
2024/01/18 13:23:28;;;;;;;4.90;4.53;;;;;;;2.58;51.59;98071.78;10389212;28;20239;-73
2024/01/18 13:28:30;;;;;;;4.73;4.23;;;;;;;1.95;51.71;98198.38;10399860;28;20253;-73
2024/01/18 13:33:31;;;;;;;3.87;3.57;;;;;;;2.66;50.53;98153.59;10389914;28;20264;-73
2024/01/18 13:38:33;;;;;;;4.17;3.70;;;;;;;1.95;51.83;98203.66;10409765;28;20711;-73
2024/01/18 13:43:35;;;;;;;8.97;4.20;;;;;;;2.86;50.37;98067.63;10446100;28;20242;-73
2024/01/18 13:48:37;;;;;;;4.03;3.73;;;;;;;2.72;50.58;98153.75;10434187;28;20262;-72
2024/01/18 13:53:39;;;;;;;3.97;3.67;;;;;;;4.52;47.11;98213.31;10442147;28;20240;-73
2024/01/18 13:58:40;;;;;;;4.47;3.57;;;;;;;2.76;49.19;98388.50;10421233;28;20266;-73
2024/01/18 14:03:45;;;;;;;6.93;4.43;;;;;;;3.45;48.69;98338.56;10381249;28;20246;-73
2024/01/18 14:08:48;;;;;;;5.27;4.40;;;;;;;3.52;48.59;98373.09;10402568;28;20237;-74
2024/01/18 14:13:49;;;;;;;5.60;3.70;;;;;;;5.08;46.16;98367.38;10442378;28;20332;-70
2024/01/18 14:18:51;;;;;;;4.03;3.73;;;;;;;3.74;48.14;98499.31;10416364;28;20321;-70
2024/01/18 14:23:53;;;;;;;6.33;3.83;;;;;;;4.53;48.49;98266.09;10387196;28;20234;-70
2024/01/18 14:28:54;;;;;;;4.50;4.13;;;;;;;5.00;47.91;98240.22;10400140;28;20227;-70
2024/01/18 14:33:56;;;;;;;5.17;4.77;;;;;;;4.64;47.72;98357.56;10393549;28;20293;-70
2024/01/18 14:38:58;;;;;;;4.97;4.10;;;;;;;4.82;46.94;98428.78;10390932;28;20239;-70
2024/01/18 14:43:59;;;;;;;4.90;4.50;;;;;;;5.24;45.65;98578.56;10396327;28;20241;-69
2024/01/18 14:49:01;;;;;;;5.07;4.57;;;;;;;6.32;45.21;98360.41;10414576;28;20266;-68
2024/01/18 14:54:03;;;;;;;5.07;4.67;;;;;;;5.92;44.51;98512.19;10431514;28;20229;-68
2024/01/18 14:59:04;;;;;;;5.17;4.23;;;;;;;4.65;46.02;98636.63;10427383;28;20391;-70
2024/01/18 15:04:07;;;;;;;7.10;4.83;;;;;;;4.52;45.83;98714.84;10440413;28;20262;-69
2024/01/18 15:09:09;;;;;;;4.63;4.23;;;;;;;4.61;45.64;98702.41;10431799;28;20234;-70
2024/01/18 15:14:12;;;;;;;4.60;4.17;;;;;;;4.26;46.25;98662.09;10429816;28;20245;-69
2024/01/18 15:19:14;;;;;;;7.27;4.77;;;;;;;6.20;44.08;98487.59;10439690;28;20226;-69
2024/01/18 15:24:18;;;;;;;4.87;4.43;;;;;;;4.24;46.67;98631.47;10438286;28;20365;-70
2024/01/18 15:29:20;;;;;;;4.80;4.30;;;;;;;4.23;46.44;98630.66;10412330;28;20616;-70
2024/01/18 15:34:22;;;;;;;6.67;4.47;;;;;;;5.59;44.80;98612.63;10393382;28;20230;-69
2024/01/18 15:39:24;;;;;;;5.80;5.20;;;;;;;5.26;45.17;98626.13;10392934;28;20231;-70
2024/01/18 15:44:29;;;;;;;9.53;4.73;;;;;;;3.83;46.53;98784.13;10409869;28;20261;-70
2024/01/18 15:49:31;;;;;;;6.50;5.73;;;;;;;3.00;47.38;98831.66;10433077;28;20246;-70
2024/01/18 15:54:33;;;;;;;7.67;5.63;;;;;;;4.03;46.64;98623.09;10446947;28;20242;-70
2024/01/18 15:59:35;;;;;;;8.77;5.80;;;;;;;5.19;43.91;98773.72;10441683;28;20246;-70
2024/01/18 16:04:36;;;;;;;6.17;5.27;;;;;;;4.92;44.14;98812.94;10439949;28;20300;-69
2024/01/18 16:09:38;;;;;;;7.60;5.40;;;;;;;3.92;45.47;98905.84;10441994;28;20327;-71
2024/01/18 16:14:43;;;;;;;12.17;5.93;;;;;;;5.46;43.62;98738.72;10444239;28;20700;-71
2024/01/18 16:19:45;;;;;;;6.43;5.10;;;;;;;6.16;42.72;98749.28;10440362;28;20479;-70
2024/01/18 16:24:46;;;;;;;6.50;4.97;;;;;;;5.35;42.92;98956.66;10447706;28;20761;-70
2024/01/18 16:29:50;;;;;;;7.17;6.47;;;;;;;7.41;39.96;98958.78;10441221;28;20784;-71
2024/01/18 16:35:06;;;;;;;8.30;5.70;;;;;;;7.80;39.93;98874.25;10439460;28;20232;-70
2024/01/18 16:40:09;;;;;;;11.77;9.63;;;;;;;7.42;40.42;98959.59;10436433;28;20241;-69
2024/01/18 16:45:10;;;;;;;8.80;6.23;;;;;;;6.88;41.63;98887.00;10437076;28;20227;-70
2024/01/18 16:50:13;;;;;;;8.23;6.23;;;;;;;6.70;41.49;98953.78;10440500;28;20231;-71
2024/01/18 16:55:15;;;;;;;9.63;6.03;;;;;;;5.06;42.68;99156.13;10438672;28;20231;-71
2024/01/18 17:00:17;;;;;;;6.17;5.03;;;;;;;5.04;42.97;99018.41;10449182;28;20326;-70
2024/01/18 17:05:18;;;;;;;6.33;5.73;;;;;;;4.64;43.85;98998.03;10459270;28;20239;-69
2024/01/18 17:10:20;;;;;;;7.07;6.17;;;;;;;4.87;43.07;99097.13;10434883;28;20250;-69
2024/01/18 17:15:22;;;;;;;12.77;6.80;;;;;;;5.18;42.82;99071.75;10457548;28;20241;-69
2024/01/18 17:20:23;;;;;;;6.67;5.43;;;;;;;6.01;41.84;99030.78;10437236;28;20239;-71
2024/01/18 17:25:25;;;;;;;9.47;6.27;;;;;;;6.42;40.86;99086.38;10438753;28;20504;-72
2024/01/18 17:30:27;;;;;;;15.73;11.43;;;;;;;6.00;41.56;99120.25;10437496;28;20238;-70
2024/01/18 17:35:28;;;;;;;38.60;23.47;;;;;;;5.99;41.66;99097.38;10438478;28;20248;-70
2024/01/18 17:40:30;;;;;;;62.23;34.37;;;;;;;6.20;41.24;99101.28;10436413;28;20722;-70
2024/01/18 17:45:31;;;;;;;52.27;33.13;;;;;;;5.90;41.44;99185.19;10437310;28;20288;-70
2024/01/18 17:50:33;;;;;;;18.87;15.43;;;;;;;5.30;42.46;99115.53;10437180;28;20775;-70
2024/01/18 17:55:35;;;;;;;9.93;7.93;;;;;;;4.74;42.90;99137.38;10438750;28;20321;-71
2024/01/18 18:00:37;;;;;;;9.43;8.17;;;;;;;4.88;43.03;99074.06;10436023;28;20724;-69
2024/01/18 18:05:40;;;;;;;14.80;11.10;;;;;;;4.21;43.50;99157.00;10437025;28;20229;-71
2024/01/18 18:10:42;;;;;;;12.07;9.37;;;;;;;6.08;40.84;99026.44;10437831;28;20240;-70
2024/01/18 18:15:44;;;;;;;12.67;9.33;;;;;;;4.72;42.63;99147.28;10436674;28;20701;-70
2024/01/18 18:20:51;;;;;;;13.33;9.83;;;;;;;6.18;40.62;99007.66;10429553;28;20253;-68
2024/01/18 18:25:53;;;;;;;11.50;10.30;;;;;;;6.13;40.30;99158.75;10434954;28;20233;-68
2024/01/18 18:30:55;;;;;;;14.93;11.57;;;;;;;5.37;41.14;99219.16;10436193;28;20229;-72
2024/01/18 18:35:59;;;;;;;20.13;11.50;;;;;;;5.37;41.20;99203.25;10431616;28;20683;-71
2024/01/18 18:41:00;;;;;;;16.23;12.67;;;;;;;5.87;40.43;99159.78;10433880;28;20236;-71
2024/01/18 18:46:03;;;;;;;18.33;14.63;;;;;;;5.65;40.39;99196.66;10438968;28;20231;-71
2024/01/18 18:51:06;;;;;;;41.53;28.70;;;;;;;5.91;39.99;99161.13;10436944;28;20587;-71
2024/01/18 18:56:08;;;;;;;43.97;30.73;;;;;;;5.83;39.66;99220.38;10432218;28;20244;-71
2024/01/18 19:01:10;;;;;;;39.13;27.67;;;;;;;5.17;40.46;99235.41;10437031;28;20232;-70
2024/01/18 19:06:12;;;;;;;28.97;20.63;;;;;;;5.14;40.29;99265.72;10438808;28;20232;-71
2024/01/18 19:11:15;;;;;;;25.90;19.33;;;;;;;5.06;40.08;99318.72;10434508;28;20239;-70
2024/01/18 19:16:17;;;;;;;20.43;15.10;;;;;;;6.05;39.48;99154.28;10441715;28;20243;-71
2024/01/18 19:21:19;;;;;;;20.03;14.33;;;;;;;6.02;38.96;99229.00;10436688;28;20235;-68
2024/01/18 19:26:20;;;;;;;25.50;17.73;;;;;;;5.50;39.74;99257.53;10450953;28;20703;-69
2024/01/18 19:31:22;;;;;;;20.97;16.63;;;;;;;4.28;41.30;99354.03;10443874;28;20227;-67
2024/01/18 19:36:24;;;;;;;17.27;13.10;;;;;;;4.50;41.20;99290.97;10455146;28;20236;-67
2024/01/18 19:41:27;;;;;;;20.50;15.50;;;;;;;5.40;39.83;99293.13;10440035;28;20614;-69
2024/01/18 19:46:29;;;;;;;22.87;16.80;;;;;;;5.20;39.83;99353.59;10433867;28;20707;-71
2024/01/18 19:51:31;;;;;;;27.30;20.43;;;;;;;4.23;40.61;99149.72;10455107;28;20621;-69
2024/01/18 19:56:33;;;;;;;29.10;20.23;;;;;;;4.40;39.93;99291.06;10447557;28;20608;-72
2024/01/18 20:01:34;;;;;;;27.00;17.33;;;;;;;4.26;40.69;99252.72;10437892;28;20733;-69
2024/01/18 20:06:36;;;;;;;20.03;15.10;;;;;;;4.34;40.65;99265.19;10447856;28;20339;-70
2024/01/18 20:11:38;;;;;;;30.57;20.63;;;;;;;3.30;41.68;99345.16;10437096;28;20224;-69
2024/01/18 20:16:39;;;;;;;29.63;22.20;;;;;;;3.45;41.76;99347.16;10455236;28;20235;-68
2024/01/18 20:21:41;;;;;;;18.17;14.53;;;;;;;2.35;43.15;99411.22;10457278;28;20318;-69
2024/01/18 20:26:43;;;;;;;22.50;16.57;;;;;;;3.76;41.68;99218.94;10453891;28;20237;-68
2024/01/18 20:31:45;;;;;;;21.00;14.97;;;;;;;4.78;40.21;99222.69;10445324;28;20619;-69
2024/01/18 20:36:47;;;;;;;21.07;14.70;;;;;;;3.94;40.84;99380.41;10444373;28;20235;-69
2024/01/18 20:41:49;;;;;;;23.30;16.17;;;;;;;3.40;41.08;99409.44;10450017;28;20229;-70
2024/01/18 20:46:51;;;;;;;22.63;16.13;;;;;;;3.08;41.63;99382.41;10439603;28;20227;-70
2024/01/18 20:51:53;;;;;;;17.13;15.23;;;;;;;4.02;40.37;99287.81;10434857;28;20321;-69
2024/01/18 20:56:55;;;;;;;24.13;18.57;;;;;;;3.26;40.46;99482.97;10441549;28;20235;-70
2024/01/18 21:01:56;;;;;;;30.93;19.73;;;;;;;3.51;40.73;99366.88;10435656;28;20241;-70
2024/01/18 21:06:58;;;;;;;29.17;20.23;;;;;;;3.10;40.69;99465.06;10441033;28;20236;-69
2024/01/18 21:12:00;;;;;;;38.43;23.30;;;;;;;3.33;40.30;99348.34;10437116;28;20246;-71
2024/01/18 21:17:01;;;;;;;53.40;30.90;;;;;;;1.95;42.08;99307.44;10447191;28;20244;-70
2024/01/18 21:22:03;;;;;;;40.30;25.13;;;;;;;2.80;41.25;99306.69;10446724;28;20243;-70
2024/01/18 21:27:05;;;;;;;26.13;15.90;;;;;;;3.82;40.30;99258.84;10443914;28;20234;-70
2024/01/18 21:32:07;;;;;;;26.33;18.13;;;;;;;3.30;41.32;99266.66;10439205;28;20228;-69
2024/01/18 21:37:09;;;;;;;18.77;14.27;;;;;;;3.90;40.21;99368.44;10451051;28;20251;-69
2024/01/18 21:42:11;;;;;;;16.67;13.07;;;;;;;4.36;39.83;99306.44;10435445;28;20656;-70
2024/01/18 21:47:12;;;;;;;20.80;13.20;;;;;;;3.83;40.22;99440.53;10443000;28;20227;-70
2024/01/18 21:52:14;;;;;;;19.90;13.93;;;;;;;3.50;41.06;99381.09;10445688;28;20303;-69
2024/01/18 21:57:16;;;;;;;18.60;14.03;;;;;;;4.32;39.58;99413.72;10450086;28;20729;-69
2024/01/18 22:02:18;;;;;;;17.20;13.90;;;;;;;4.84;39.99;99287.50;10435630;28;20796;-70
2024/01/18 22:07:20;;;;;;;17.67;12.73;;;;;;;4.63;39.60;99375.38;10453286;28;20586;-71
2024/01/18 22:12:22;;;;;;;15.23;12.30;;;;;;;4.47;39.32;99530.56;10438951;28;20203;-70
2024/01/18 22:17:24;;;;;;;26.90;17.77;;;;;;;3.02;41.37;99586.53;10437139;28;20227;-69
2024/01/18 22:22:25;;;;;;;18.93;13.03;;;;;;;1.71;43.96;99642.91;10436737;28;20675;-69
2024/01/18 22:27:28;;;;;;;19.80;12.33;;;;;;;2.09;44.22;99577.22;10449997;28;20318;-69
2024/01/18 22:32:30;;;;;;;17.63;12.07;;;;;;;4.21;41.38;99353.00;10445827;28;20246;-67
2024/01/18 22:37:32;;;;;;;17.17;12.13;;;;;;;3.17;41.28;99642.47;10451179;28;20238;-72
2024/01/18 22:42:33;;;;;;;16.87;12.10;;;;;;;4.07;41.01;99454.16;10441511;28;20682;-69
2024/01/18 22:47:35;;;;;;;20.37;13.77;;;;;;;2.79;42.80;99599.19;10451376;28;20235;-70
2024/01/18 22:52:37;;;;;;;18.77;13.23;;;;;;;2.65;43.31;99536.16;10441567;28;20272;-70
2024/01/18 22:57:38;;;;;;;16.23;11.17;;;;;;;2.42;43.54;99539.09;10438250;28;20514;-69
2024/01/18 23:02:40;;;;;;;15.23;12.30;;;;;;;2.69;43.26;99509.34;10434336;28;20317;-68
2024/01/18 23:07:42;;;;;;;12.83;9.83;;;;;;;2.22;43.45;99598.13;10435678;28;20305;-70
2024/01/18 23:12:43;;;;;;;15.27;10.37;;;;;;;2.87;42.57;99482.19;10446366;28;20237;-70
2024/01/18 23:17:45;;;;;;;16.27;9.57;;;;;;;3.82;41.62;99340.91;10448515;28;20318;-69
2024/01/18 23:22:46;;;;;;;34.27;22.83;;;;;;;2.75;39.89;99600.41;10440935;28;20326;-69
2024/01/18 23:27:48;;;;;;;27.63;18.70;;;;;;;3.63;39.06;99436.28;10443126;28;20644;-70
2024/01/18 23:32:50;;;;;;;21.03;11.70;;;;;;;2.55;41.84;99586.34;10447905;28;20714;-71
2024/01/18 23:37:51;;;;;;;16.57;11.73;;;;;;;2.17;42.82;99601.97;10446610;28;20243;-69
2024/01/18 23:42:53;;;;;;;14.00;10.30;;;;;;;2.38;43.56;99444.41;10435516;28;22744;-71